Time;durP1;ratioP1;P1;durP2;ratioP2;P2;SDS_P1;SDS_P2;PMS_P1;PMS_P2;Temp;Humidity;BMP_temperature;BMP_pressure;BME280_temperature;BME280_humidity;BME280_pressure;Samples;Min_cycle;Max_cycle;Signal;HPM_P1;HPM_P2
2022/04/09 00:02:06;;;;;;;6.63;3.53;;;;;;;9.83;68.70;97844.44;5030987;28;20357;-61
2022/04/09 00:04:32;;;;;;;5.35;3.50;;;;;;;9.77;68.62;97854.81;5030990;28;20029;-62
2022/04/09 00:06:57;;;;;;;6.60;3.92;;;;;;;9.75;68.11;97853.31;5031127;28;20401;-63
2022/04/09 00:09:23;;;;;;;4.90;3.30;;;;;;;9.66;68.56;97854.31;5029877;28;20029;-62
2022/04/09 00:11:49;;;;;;;4.32;3.05;;;;;;;9.63;68.12;97866.97;5029163;28;20466;-61
2022/04/09 00:14:14;;;;;;;5.70;2.60;;;;;;;9.58;67.61;97869.31;5030964;28;20064;-62
2022/04/09 00:16:40;;;;;;;2.67;2.30;;;;;;;9.52;67.54;97859.31;5030999;28;20037;-61
2022/04/09 00:19:06;;;;;;;3.10;2.25;;;;;;;9.39;67.65;97870.47;5030845;28;20404;-63
2022/04/09 00:21:32;;;;;;;3.03;2.20;;;;;;;9.39;67.24;97877.63;5030443;28;20041;-63
2022/04/09 00:23:58;;;;;;;4.93;2.50;;;;;;;9.24;68.17;97878.28;5030728;28;20366;-61
2022/04/09 00:26:23;;;;;;;5.03;2.42;;;;;;;9.24;68.11;97886.31;5029341;28;20041;-61
2022/04/09 00:28:49;;;;;;;4.15;2.38;;;;;;;9.24;68.45;97896.13;5030468;28;20029;-61
2022/04/09 00:31:14;;;;;;;2.83;2.30;;;;;;;9.14;68.49;97893.59;5030197;28;20081;-60
2022/04/09 00:33:40;;;;;;;3.28;2.15;;;;;;;9.16;68.91;97904.94;5030747;28;20037;-61
2022/04/09 00:36:05;;;;;;;2.58;2.10;;;;;;;9.08;68.82;97896.94;5030559;28;20551;-61
2022/04/09 00:38:31;;;;;;;2.53;1.60;;;;;;;8.94;68.39;97885.03;5030369;28;20041;-63
2022/04/09 00:40:57;;;;;;;3.28;1.55;;;;;;;8.81;68.27;97866.81;5030418;28;20029;-61
2022/04/09 00:43:23;;;;;;;1.65;1.30;;;;;;;8.92;67.74;97903.88;5030645;28;20075;-61
2022/04/09 00:45:49;;;;;;;3.00;1.20;;;;;;;8.86;68.02;97909.84;5029460;28;20033;-62
2022/04/09 00:48:18;;;;;;;1.58;1.05;;;;;;;8.86;68.05;97917.88;5029028;28;20076;-61
2022/04/09 00:50:43;;;;;;;2.67;1.08;;;;;;;8.64;67.84;97890.75;5043180;28;20029;-62
2022/04/09 00:53:11;;;;;;;3.33;1.08;;;;;;;8.79;67.69;97914.16;5050357;28;20028;-61
2022/04/09 00:58:23;;;;;;;2.63;0.90;;;;;;;8.71;68.07;97923.81;5050217;28;20474;-61
2022/04/09 01:00:48;;;;;;;1.08;0.98;;;;;;;8.66;68.07;97928.78;5049937;28;20392;-61
2022/04/09 01:03:19;;;;;;;1.58;1.05;;;;;;;8.64;67.96;97919.28;5050172;28;20029;-61
2022/04/09 01:05:46;;;;;;;1.10;1.00;;;;;;;8.61;68.04;97926.59;5049840;28;20453;-62
2022/04/09 01:08:12;;;;;;;1.27;1.08;;;;;;;8.52;67.79;97919.53;5050130;28;20040;-61
2022/04/09 01:10:38;;;;;;;1.88;1.27;;;;;;;8.42;67.57;97924.13;5049989;28;20381;-62
2022/04/09 01:13:04;;;;;;;1.10;1.00;;;;;;;8.38;67.76;97920.91;5049611;28;20183;-61
2022/04/09 01:15:30;;;;;;;2.45;1.02;;;;;;;8.38;67.55;97936.91;5031883;28;20029;-61
2022/04/09 01:17:55;;;;;;;1.65;1.20;;;;;;;8.32;67.77;97949.06;5050017;28;20035;-61
2022/04/09 01:20:26;;;;;;;1.13;0.90;;;;;;;8.30;67.45;97950.19;5051682;28;20032;-61
2022/04/09 01:22:52;;;;;;;1.88;1.17;;;;;;;8.23;68.01;97944.63;5053981;28;20059;-61
2022/04/09 01:25:18;;;;;;;1.20;1.10;;;;;;;7.93;67.73;97913.91;5053171;28;20492;-61
2022/04/09 01:27:46;;;;;;;2.90;1.10;;;;;;;8.23;67.78;97965.16;5052328;28;20104;-60
2022/04/09 01:30:12;;;;;;;1.67;1.17;;;;;;;8.27;67.77;97966.50;5053387;28;20089;-60
2022/04/09 01:32:37;;;;;;;1.50;1.38;;;;;;;8.31;68.16;97973.19;5053204;28;20041;-62
2022/04/09 01:35:04;;;;;;;2.40;1.60;;;;;;;8.09;67.32;97931.91;5050773;28;20061;-62
2022/04/09 01:37:29;;;;;;;2.95;1.85;;;;;;;8.35;67.11;97974.56;5042951;28;20087;-60
2022/04/09 01:39:55;;;;;;;2.90;1.83;;;;;;;8.28;67.11;97978.84;5033041;28;20033;-62
2022/04/09 01:42:21;;;;;;;3.28;1.95;;;;;;;8.28;67.61;97987.66;5033097;28;20026;-62
2022/04/09 01:44:50;;;;;;;3.55;1.90;;;;;;;8.30;67.07;97988.34;5033623;28;20084;-60
2022/04/09 01:47:15;;;;;;;1.90;1.75;;;;;;;8.23;66.99;97989.13;5032840;28;20033;-60
2022/04/09 01:49:41;;;;;;;1.60;1.50;;;;;;;8.12;67.21;97983.03;5033220;28;20075;-60
2022/04/09 01:52:08;;;;;;;3.25;1.60;;;;;;;8.12;66.79;97996.38;5033349;28;20116;-61
2022/04/09 01:54:33;;;;;;;1.95;1.75;;;;;;;8.16;66.49;98010.25;5032957;28;20055;-61
2022/04/09 01:56:59;;;;;;;3.58;2.80;;;;;;;8.02;66.39;97995.63;5032691;28;20033;-61
2022/04/09 01:59:24;;;;;;;2.45;1.90;;;;;;;8.06;65.85;98023.66;5031585;28;20037;-62
2022/04/09 02:01:50;;;;;;;2.65;1.67;;;;;;;8.01;65.58;98015.28;5033236;28;20034;-60
2022/04/09 02:04:15;;;;;;;2.50;1.77;;;;;;;7.98;65.53;98020.91;5032951;28;20056;-62
2022/04/09 02:06:42;;;;;;;2.05;1.65;;;;;;;7.96;65.83;98041.53;5032694;28;20041;-61
2022/04/09 02:09:13;;;;;;;2.55;1.48;;;;;;;7.96;65.63;98046.88;5032952;28;20037;-61
2022/04/09 02:11:42;;;;;;;2.05;1.55;;;;;;;7.99;65.41;98049.25;5031858;28;20022;-62
2022/04/09 02:14:09;;;;;;;1.45;1.27;;;;;;;7.95;65.79;98058.50;5032476;28;20092;-60
2022/04/09 02:16:36;;;;;;;1.80;1.60;;;;;;;7.87;65.58;98038.78;5031393;28;20409;-61
2022/04/09 02:19:02;;;;;;;2.00;1.80;;;;;;;7.86;65.69;98063.75;5032900;28;20059;-60
2022/04/09 02:21:27;;;;;;;2.90;2.08;;;;;;;7.90;65.76;98069.63;5032667;28;20502;-61
2022/04/09 02:23:53;;;;;;;2.25;1.70;;;;;;;7.84;65.84;98071.06;5032581;28;20047;-62
2022/04/09 02:26:19;;;;;;;2.45;1.85;;;;;;;7.83;65.58;98082.69;5032075;28;20037;-61
2022/04/09 02:28:47;;;;;;;4.00;1.90;;;;;;;7.81;65.72;98070.50;5032783;28;20029;-60
2022/04/09 02:31:15;;;;;;;1.48;1.35;;;;;;;7.79;65.74;98077.81;5032486;28;20124;-62
2022/04/09 02:33:41;;;;;;;2.30;1.75;;;;;;;7.79;65.73;98084.00;5032280;28;20042;-63
2022/04/09 02:36:09;;;;;;;2.67;1.83;;;;;;;7.77;65.75;98083.31;5032056;28;20374;-61
2022/04/09 02:38:35;;;;;;;2.25;1.67;;;;;;;7.79;65.33;98092.00;5032396;28;20083;-60
2022/04/09 02:41:00;;;;;;;2.20;1.73;;;;;;;7.76;65.33;98084.28;5032362;28;20117;-61
2022/04/09 02:43:25;;;;;;;3.55;1.80;;;;;;;7.80;65.29;98085.66;5032466;28;20462;-61
2022/04/09 02:45:51;;;;;;;2.85;2.20;;;;;;;7.74;65.36;98083.59;5031852;28;20171;-61
2022/04/09 02:48:17;;;;;;;3.20;1.95;;;;;;;7.77;65.47;98101.97;5032423;28;20029;-61
2022/04/09 02:50:43;;;;;;;2.20;2.00;;;;;;;7.78;65.24;98100.97;5032327;28;20033;-63
2022/04/09 02:53:11;;;;;;;2.53;2.13;;;;;;;7.75;65.01;98103.94;5031945;28;20033;-61
2022/04/09 02:55:37;;;;;;;2.53;2.15;;;;;;;7.78;64.62;98100.13;5030255;28;20021;-61
2022/04/09 02:58:02;;;;;;;2.53;2.20;;;;;;;7.75;64.90;98107.41;5032212;28;20542;-61
2022/04/09 03:00:28;;;;;;;2.67;2.33;;;;;;;7.78;63.72;98111.63;5030756;28;20030;-61
2022/04/09 03:02:53;;;;;;;2.47;2.28;;;;;;;7.78;63.88;98118.75;5031755;28;20021;-61
2022/04/09 03:05:19;;;;;;;2.42;2.15;;;;;;;7.75;64.12;98122.59;5031640;28;20394;-60
2022/04/09 03:07:44;;;;;;;2.60;2.38;;;;;;;7.75;64.23;98130.56;5031879;28;20030;-61
2022/04/09 03:10:10;;;;;;;3.25;2.30;;;;;;;7.74;64.40;98120.91;5031225;28;20428;-60
2022/04/09 03:12:45;;;;;;;2.58;2.38;;;;;;;7.55;64.41;98081.88;5031663;28;20100;-62
2022/04/09 03:15:11;;;;;;;3.17;2.75;;;;;;;7.72;64.62;98121.03;5031113;28;20128;-62
2022/04/09 03:17:37;;;;;;;5.20;3.45;;;;;;;7.73;64.25;98113.91;5031621;28;20116;-62
2022/04/09 03:20:03;;;;;;;5.22;2.97;;;;;;;7.70;64.53;98124.81;5031447;28;20184;-61
2022/04/09 03:22:30;;;;;;;2.80;2.50;;;;;;;7.66;64.53;98129.63;5031396;28;20572;-61
2022/04/09 03:24:59;;;;;;;4.00;2.33;;;;;;;7.69;64.25;98134.66;5031597;28;20417;-62
2022/04/09 03:27:28;;;;;;;2.65;2.45;;;;;;;7.60;63.94;98131.06;5031487;28;20033;-62
2022/04/09 03:29:54;;;;;;;3.70;2.38;;;;;;;7.61;64.25;98139.88;5031174;28;20033;-61
2022/04/09 03:32:21;;;;;;;3.15;2.63;;;;;;;7.58;64.14;98141.00;5031948;28;20042;-61
2022/04/09 03:34:47;;;;;;;2.50;2.30;;;;;;;7.62;63.92;98160.22;5031352;28;20030;-61
2022/04/09 03:37:13;;;;;;;2.60;2.35;;;;;;;7.55;63.91;98145.78;5031152;28;20029;-61
2022/04/09 03:39:39;;;;;;;3.90;2.40;;;;;;;7.60;63.64;98157.69;5031481;28;20117;-63
2022/04/09 03:42:05;;;;;;;2.85;2.20;;;;;;;7.61;64.00;98167.34;5030688;28;20044;-61
2022/04/09 03:44:31;;;;;;;4.85;2.70;;;;;;;7.60;63.71;98157.69;5030659;28;20048;-62
2022/04/09 03:47:00;;;;;;;2.50;2.30;;;;;;;7.24;63.60;98114.09;5031000;28;20461;-61
2022/04/09 03:49:28;;;;;;;3.00;2.70;;;;;;;7.45;63.76;98144.00;5031236;28;20033;-61
2022/04/09 03:51:53;;;;;;;3.70;2.70;;;;;;;7.59;63.73;98172.00;5029668;28;20036;-62
2022/04/09 03:54:19;;;;;;;4.90;2.83;;;;;;;7.69;63.55;98182.59;5031194;28;20029;-63
2022/04/09 03:56:45;;;;;;;2.97;2.67;;;;;;;7.73;62.56;98191.97;5031309;28;20060;-61
2022/04/09 03:59:11;;;;;;;2.80;2.60;;;;;;;7.52;62.91;98165.56;5031002;28;20033;-63
2022/04/09 04:01:37;;;;;;;4.25;2.85;;;;;;;7.73;62.68;98215.13;5036313;28;20384;-62
2022/04/09 04:04:03;;;;;;;3.80;2.90;;;;;;;7.72;62.81;98229.44;5031052;28;20039;-63
2022/04/09 04:06:29;;;;;;;3.30;3.00;;;;;;;7.72;62.63;98224.94;5031016;28;20044;-64
2022/04/09 04:08:56;;;;;;;5.25;2.88;;;;;;;7.77;62.37;98219.19;5029702;28;20048;-62
2022/04/09 04:11:22;;;;;;;4.70;2.97;;;;;;;7.79;62.13;98225.19;5029434;28;20402;-61
2022/04/09 04:13:49;;;;;;;4.28;3.13;;;;;;;7.79;62.08;98225.19;5029677;28;20029;-61
2022/04/09 04:16:15;;;;;;;3.45;2.90;;;;;;;7.80;62.40;98228.69;5030877;28;20052;-61
2022/04/09 04:18:41;;;;;;;3.03;2.75;;;;;;;7.86;61.98;98234.28;5042598;28;20025;-62
2022/04/09 04:21:08;;;;;;;4.10;2.80;;;;;;;7.88;61.95;98240.31;5048918;28;20515;-60
2022/04/09 04:23:33;;;;;;;4.15;3.13;;;;;;;7.98;61.71;98245.59;5049382;28;20029;-62
2022/04/09 04:25:59;;;;;;;3.60;2.90;;;;;;;8.04;61.44;98249.50;5050816;28;20388;-62
2022/04/09 04:28:24;;;;;;;5.55;3.40;;;;;;;8.07;61.36;98253.69;5047673;28;20025;-62
2022/04/09 04:30:50;;;;;;;4.25;3.13;;;;;;;7.92;60.86;98229.34;5049350;28;20350;-59
2022/04/09 04:33:15;;;;;;;4.88;3.17;;;;;;;8.15;61.33;98262.63;5050745;28;20150;-59
2022/04/09 04:35:41;;;;;;;3.78;3.38;;;;;;;8.15;61.30;98257.31;5050711;28;20484;-60
2022/04/09 04:38:06;;;;;;;3.30;2.95;;;;;;;8.19;61.65;98266.69;5033416;28;20037;-61
2022/04/09 04:40:32;;;;;;;6.05;3.05;;;;;;;7.96;61.22;98230.75;5030556;28;20105;-62
2022/04/09 04:42:57;;;;;;;4.43;2.95;;;;;;;8.19;61.28;98285.34;5030756;28;20033;-61
2022/04/09 04:45:23;;;;;;;3.30;2.70;;;;;;;8.17;60.77;98276.66;5031048;28;20040;-61
2022/04/09 04:47:49;;;;;;;4.35;3.42;;;;;;;8.12;60.76;98278.09;5030581;28;20029;-59
2022/04/09 04:50:16;;;;;;;3.35;2.85;;;;;;;8.10;61.36;98275.56;5030768;28;20033;-60
2022/04/09 04:52:43;;;;;;;4.32;3.10;;;;;;;8.05;61.23;98270.66;5030549;28;20034;-61
2022/04/09 04:55:09;;;;;;;4.40;3.47;;;;;;;8.10;60.92;98280.91;5032580;28;20541;-61
2022/04/09 04:57:48;;;;;;;4.05;3.20;;;;;;;8.23;61.30;98282.41;5033907;28;20040;-61
2022/04/09 05:00:18;;;;;;;3.65;3.00;;;;;;;8.26;60.92;98280.28;5042885;28;20366;-64
2022/04/09 05:02:44;;;;;;;4.22;3.40;;;;;;;8.23;60.33;98287.75;5053393;28;20037;-61
2022/04/09 05:05:10;;;;;;;3.15;2.85;;;;;;;8.23;60.16;98295.75;5035102;28;20025;-61
2022/04/09 05:07:50;;;;;;;3.15;2.70;;;;;;;8.27;60.41;98300.63;5032747;28;20044;-62
2022/04/09 05:10:21;;;;;;;7.53;3.13;;;;;;;8.13;60.28;98293.94;5040275;28;20106;-61
2022/04/09 05:12:47;;;;;;;3.80;3.00;;;;;;;8.27;60.08;98308.59;5049457;28;20287;-61
2022/04/09 05:15:14;;;;;;;6.88;3.30;;;;;;;8.34;60.05;98322.22;5050338;28;20067;-61
2022/04/09 05:17:40;;;;;;;3.85;3.00;;;;;;;8.40;59.61;98321.59;5042487;28;20056;-62
2022/04/09 05:20:08;;;;;;;4.60;3.35;;;;;;;8.50;59.14;98328.78;5050404;28;20041;-61
2022/04/09 05:22:36;;;;;;;4.68;3.50;;;;;;;8.60;59.33;98334.91;5053442;28;20032;-61
2022/04/09 05:25:03;;;;;;;4.78;3.10;;;;;;;8.52;58.80;98313.47;5053324;28;20063;-61
2022/04/09 05:27:30;;;;;;;3.72;3.25;;;;;;;8.73;58.69;98354.06;5052373;28;20021;-60
2022/04/09 05:29:56;;;;;;;4.03;3.42;;;;;;;8.73;58.17;98345.22;5053519;28;20032;-61
2022/04/09 05:32:22;;;;;;;5.25;4.10;;;;;;;8.57;58.37;98346.72;5052946;28;20037;-64
2022/04/09 05:34:48;;;;;;;5.68;4.10;;;;;;;8.58;58.60;98360.88;5041104;28;20296;-65
2022/04/09 05:37:13;;;;;;;5.60;4.57;;;;;;;8.42;58.86;98337.47;5043202;28;20751;-62
2022/04/09 05:39:39;;;;;;;5.55;4.50;;;;;;;8.53;58.94;98371.16;5044021;28;20037;-62
2022/04/09 05:42:04;;;;;;;6.65;4.95;;;;;;;8.52;58.76;98377.47;5033292;28;20034;-63
2022/04/09 05:44:30;;;;;;;6.45;4.18;;;;;;;8.54;58.70;98383.50;5033478;28;20101;-63
2022/04/09 05:46:56;;;;;;;4.45;3.92;;;;;;;8.59;58.81;98392.75;5033561;28;20033;-63
2022/04/09 05:49:22;;;;;;;5.63;4.82;;;;;;;8.66;58.68;98390.31;5033346;28;20392;-63
2022/04/09 05:51:48;;;;;;;5.93;4.95;;;;;;;8.73;58.34;98383.44;5033296;28;20533;-63
2022/04/09 05:54:14;;;;;;;5.65;4.65;;;;;;;8.98;57.67;98402.41;5033248;28;20366;-63
2022/04/09 05:56:39;;;;;;;4.43;4.00;;;;;;;9.17;57.30;98413.97;5032992;28;20029;-63
2022/04/09 05:59:05;;;;;;;4.13;3.42;;;;;;;9.33;56.84;98424.81;5033302;28;20026;-63
2022/04/09 06:01:30;;;;;;;5.43;3.85;;;;;;;9.42;56.54;98420.41;5033332;28;20050;-63
2022/04/09 06:03:57;;;;;;;4.63;3.53;;;;;;;9.55;56.25;98436.06;5033435;28;20033;-63
2022/04/09 06:06:23;;;;;;;3.95;3.50;;;;;;;9.50;56.07;98451.72;5031678;28;20026;-63
2022/04/09 06:08:48;;;;;;;5.70;3.70;;;;;;;9.40;56.63;98459.78;5032775;28;20438;-64
2022/04/09 06:11:15;;;;;;;4.28;3.67;;;;;;;9.33;57.69;98467.53;5033324;28;20373;-63
2022/04/09 06:13:40;;;;;;;4.18;3.72;;;;;;;9.32;57.46;98465.88;5032656;28;20064;-63
2022/04/09 06:16:08;;;;;;;3.70;3.30;;;;;;;9.29;57.45;98466.16;5032613;28;20505;-64
2022/04/09 06:18:37;;;;;;;6.50;4.45;;;;;;;9.29;57.52;98476.84;5032420;28;20052;-65
2022/04/09 06:21:06;;;;;;;5.38;4.13;;;;;;;9.25;57.59;98475.47;5033054;28;20112;-64
2022/04/09 06:23:32;;;;;;;4.45;4.00;;;;;;;9.15;57.52;98475.53;5032703;28;20069;-62
2022/04/09 06:25:57;;;;;;;4.97;3.65;;;;;;;8.85;57.98;98444.59;5032564;28;20185;-63
2022/04/09 06:28:24;;;;;;;5.28;3.78;;;;;;;8.89;58.64;98478.00;5031463;28;20037;-64
2022/04/09 06:30:49;;;;;;;4.32;3.90;;;;;;;8.88;58.48;98476.34;5032769;28;20560;-63
2022/04/09 06:33:15;;;;;;;5.47;4.18;;;;;;;8.94;58.73;98470.44;5032458;28;20045;-61
2022/04/09 06:35:41;;;;;;;5.47;4.57;;;;;;;9.04;58.70;98476.56;5031176;28;20053;-63
2022/04/09 06:38:06;;;;;;;5.95;4.15;;;;;;;9.17;57.35;98483.41;5032578;28;20029;-63
2022/04/09 06:40:31;;;;;;;9.70;4.25;;;;;;;9.28;57.49;98483.19;5032515;28;20025;-63
2022/04/09 06:42:58;;;;;;;5.15;4.15;;;;;;;9.39;57.25;98475.94;5032606;28;20423;-64
2022/04/09 06:45:24;;;;;;;5.40;4.68;;;;;;;9.46;57.13;98471.72;5032095;28;20531;-64
2022/04/09 06:47:50;;;;;;;6.15;3.90;;;;;;;9.68;56.66;98477.63;5032011;28;20107;-64
2022/04/09 06:50:15;;;;;;;5.22;4.72;;;;;;;9.84;55.71;98493.78;5032409;28;20032;-63
2022/04/09 06:52:41;;;;;;;8.90;5.35;;;;;;;9.93;55.52;98497.38;5032002;28;20052;-64
2022/04/09 06:55:10;;;;;;;7.85;5.20;;;;;;;10.02;55.21;98501.00;5031673;28;20139;-63
2022/04/09 06:57:38;;;;;;;8.00;5.30;;;;;;;9.95;55.08;98507.94;5031629;28;20048;-63
2022/04/09 07:00:07;;;;;;;8.98;4.95;;;;;;;9.90;55.17;98511.94;5030915;28;20064;-64
2022/04/09 07:02:33;;;;;;;9.82;5.70;;;;;;;9.85;55.62;98522.22;5031467;28;20103;-64
2022/04/09 07:04:59;;;;;;;7.97;5.20;;;;;;;9.85;55.71;98516.84;5031451;28;20029;-63
2022/04/09 07:07:27;;;;;;;7.53;4.75;;;;;;;9.87;55.39;98525.56;5031338;28;20485;-63
2022/04/09 07:10:02;;;;;;;6.15;4.35;;;;;;;9.99;55.38;98542.22;5031577;28;20105;-63
2022/04/09 07:12:31;;;;;;;8.68;4.22;;;;;;;9.95;55.24;98534.69;5031200;28;20040;-63
2022/04/09 07:14:57;;;;;;;5.05;4.30;;;;;;;9.81;55.53;98552.91;5031048;28;20072;-63
2022/04/09 07:17:24;;;;;;;5.57;4.40;;;;;;;9.50;55.95;98537.22;5030694;28;20086;-64
2022/04/09 07:19:50;;;;;;;6.00;4.25;;;;;;;9.45;56.46;98547.50;5031032;28;20120;-65
2022/04/09 07:22:16;;;;;;;6.18;4.70;;;;;;;9.52;56.62;98556.59;5031466;28;20116;-63
2022/04/09 07:24:42;;;;;;;11.25;4.60;;;;;;;9.60;56.70;98570.03;5031127;28;20484;-64
2022/04/09 07:27:07;;;;;;;8.68;4.57;;;;;;;9.63;56.50;98556.38;5029594;28;20034;-63
2022/04/09 07:29:33;;;;;;;7.53;4.47;;;;;;;9.86;56.13;98577.34;5030032;28;20057;-64
2022/04/09 07:31:58;;;;;;;6.82;4.55;;;;;;;10.08;55.07;98591.28;5030807;28;20547;-64
2022/04/09 07:34:24;;;;;;;6.70;4.63;;;;;;;10.22;54.35;98605.16;5030805;28;20080;-62
2022/04/09 07:36:49;;;;;;;6.60;4.18;;;;;;;10.24;54.36;98595.13;5030796;28;20084;-63
2022/04/09 07:39:15;;;;;;;6.85;4.10;;;;;;;10.25;54.36;98608.38;5031251;28;20029;-62
2022/04/09 07:41:41;;;;;;;5.63;4.32;;;;;;;10.33;54.43;98612.94;5030389;28;20037;-64
2022/04/09 07:44:06;;;;;;;8.23;4.50;;;;;;;10.47;53.22;98617.78;5031032;28;20036;-63
2022/04/09 07:46:32;;;;;;;8.30;4.32;;;;;;;10.51;53.05;98625.50;5029817;28;20079;-64
2022/04/09 07:48:58;;;;;;;7.45;4.30;;;;;;;10.44;53.32;98623.47;5038614;28;20041;-61
2022/04/09 07:51:23;;;;;;;10.50;5.15;;;;;;;10.43;53.66;98626.28;5033096;28;20110;-58
2022/04/09 07:53:49;;;;;;;8.10;4.82;;;;;;;10.38;53.33;98637.44;5040812;28;20037;-65
2022/04/09 07:56:14;;;;;;;6.25;5.05;;;;;;;10.29;53.75;98630.28;5046913;28;20501;-64
2022/04/09 07:58:42;;;;;;;7.50;6.32;;;;;;;10.19;53.71;98641.91;5050540;28;20024;-64
2022/04/09 08:01:08;;;;;;;8.88;5.30;;;;;;;10.12;54.63;98643.47;5045810;28;20025;-64
2022/04/09 08:03:33;;;;;;;7.75;4.53;;;;;;;10.10;54.35;98626.75;5030974;28;20041;-64
2022/04/09 08:05:59;;;;;;;8.38;4.40;;;;;;;10.05;54.36;98629.03;5030657;28;20037;-64
2022/04/09 08:08:24;;;;;;;5.35;4.20;;;;;;;9.96;53.91;98627.28;5029570;28;20029;-64
2022/04/09 08:10:51;;;;;;;5.20;4.20;;;;;;;9.90;54.21;98640.25;5030458;28;20022;-62
2022/04/09 08:13:17;;;;;;;4.78;4.28;;;;;;;9.75;55.05;98639.06;5036763;28;20091;-65
2022/04/09 08:15:42;;;;;;;5.85;4.03;;;;;;;9.75;55.10;98649.75;5046610;28;20029;-66
2022/04/09 08:18:09;;;;;;;6.10;4.60;;;;;;;9.80;55.23;98643.97;5037575;28;20059;-65
2022/04/09 08:20:36;;;;;;;9.77;5.07;;;;;;;9.79;55.27;98636.94;5047452;28;20033;-64
2022/04/09 08:23:01;;;;;;;6.38;4.82;;;;;;;9.84;54.74;98654.19;5040286;28;20481;-69
2022/04/09 08:25:27;;;;;;;4.95;4.00;;;;;;;9.87;54.60;98648.53;5033524;28;20037;-67
2022/04/09 08:27:53;;;;;;;6.53;4.60;;;;;;;10.03;54.16;98663.09;5034655;28;20021;-59
2022/04/09 08:30:21;;;;;;;7.55;4.68;;;;;;;10.13;53.87;98655.03;5042702;28;20059;-63
2022/04/09 08:32:49;;;;;;;6.55;4.90;;;;;;;10.23;53.92;98657.66;5049520;28;20392;-61
2022/04/09 08:35:16;;;;;;;9.85;4.38;;;;;;;10.32;53.12;98668.28;5035371;28;20037;-65
2022/04/09 08:37:41;;;;;;;4.85;4.10;;;;;;;10.16;53.84;98662.75;5034778;28;20044;-62
2022/04/09 08:40:12;;;;;;;6.97;4.47;;;;;;;10.20;53.58;98669.47;5033128;28;20073;-66
2022/04/09 08:42:37;;;;;;;5.65;4.90;;;;;;;10.20;53.72;98670.34;5033578;28;20093;-67
2022/04/09 08:45:03;;;;;;;7.05;4.32;;;;;;;10.15;54.06;98639.66;5034380;28;20695;-63
2022/04/09 08:47:33;;;;;;;4.30;3.90;;;;;;;10.61;52.86;98661.09;5043055;28;20043;-61
2022/04/09 08:49:59;;;;;;;6.45;4.22;;;;;;;11.01;51.66;98678.47;5049394;28;20040;-62
2022/04/09 08:52:26;;;;;;;6.30;4.07;;;;;;;11.36;50.39;98667.84;5052586;28;20036;-61
2022/04/09 08:54:51;;;;;;;7.57;4.32;;;;;;;11.64;49.41;98667.69;5053276;28;20051;-62
2022/04/09 08:57:17;;;;;;;8.07;4.13;;;;;;;11.85;48.74;98674.50;5051843;28;20033;-61
2022/04/09 08:59:43;;;;;;;6.32;4.35;;;;;;;12.00;48.13;98672.88;5052565;28;20029;-62
2022/04/09 09:02:08;;;;;;;6.60;3.85;;;;;;;12.06;48.09;98674.94;5049475;28;20078;-62
2022/04/09 09:04:34;;;;;;;6.05;4.03;;;;;;;12.03;48.22;98682.47;5053149;28;20595;-63
2022/04/09 09:07:20;;;;;;;5.85;4.30;;;;;;;12.08;49.18;98679.31;5053462;28;20923;-61
2022/04/09 09:09:46;;;;;;;6.00;4.10;;;;;;;11.75;48.80;98693.38;5053035;28;20108;-63
2022/04/09 09:12:12;;;;;;;7.13;4.28;;;;;;;11.53;49.40;98690.22;5052467;28;20094;-63
2022/04/09 09:14:44;;;;;;;6.60;4.10;;;;;;;11.52;50.20;98693.09;5052900;28;20037;-63
2022/04/09 09:17:11;;;;;;;5.13;4.18;;;;;;;11.30;50.11;98697.97;5051081;28;20201;-65
2022/04/09 09:19:42;;;;;;;7.70;4.30;;;;;;;11.37;50.81;98699.00;5036596;28;20036;-63
2022/04/09 09:22:08;;;;;;;6.55;4.53;;;;;;;11.38;49.54;98691.81;5052970;28;20033;-62
2022/04/09 09:24:34;;;;;;;7.55;4.38;;;;;;;11.33;49.57;98681.56;5053119;28;20033;-64
2022/04/09 09:27:01;;;;;;;5.55;4.30;;;;;;;11.37;49.80;98685.63;5052935;28;20093;-65
2022/04/09 09:29:29;;;;;;;6.00;4.85;;;;;;;11.53;49.45;98695.59;5052880;28;20043;-63
2022/04/09 09:31:56;;;;;;;6.40;4.95;;;;;;;11.75;48.82;98701.41;5052236;28;20098;-64
2022/04/09 09:34:22;;;;;;;6.40;4.55;;;;;;;11.96;48.25;98701.03;5046276;28;20408;-63
2022/04/09 09:36:49;;;;;;;7.05;4.72;;;;;;;12.12;47.28;98697.63;5053008;28;20025;-64
2022/04/09 09:39:20;;;;;;;7.80;4.32;;;;;;;12.35;46.47;98703.22;5052585;28;20032;-64
2022/04/09 09:42:06;;;;;;;5.13;4.63;;;;;;;12.67;46.89;98695.41;5053008;28;20480;-63
2022/04/09 09:44:34;;;;;;;6.28;4.07;;;;;;;12.85;45.56;98681.00;5052559;28;20052;-62
2022/04/09 09:47:08;;;;;;;5.85;4.20;;;;;;;13.18;45.35;98678.31;5052457;28;20484;-64
2022/04/09 09:49:53;;;;;;;7.00;4.65;;;;;;;13.46;45.23;98678.81;5052062;28;20033;-66
2022/04/09 09:52:25;;;;;;;5.60;4.80;;;;;;;13.44;44.35;98674.59;5052758;28;20036;-63
2022/04/09 09:54:54;;;;;;;5.32;4.60;;;;;;;13.41;44.63;98680.28;5052784;28;20033;-63
2022/04/09 09:57:20;;;;;;;5.80;5.10;;;;;;;13.40;44.42;98684.84;5052658;28;20082;-63
2022/04/09 09:59:48;;;;;;;7.13;4.35;;;;;;;13.45;43.39;98681.66;5050539;28;20060;-63
2022/04/09 10:02:20;;;;;;;6.25;4.35;;;;;;;13.43;43.64;98670.25;5052813;28;20111;-61
2022/04/09 10:04:46;;;;;;;6.00;4.53;;;;;;;13.44;43.23;98696.13;5032274;28;20465;-62
2022/04/09 10:07:14;;;;;;;8.80;4.53;;;;;;;13.52;43.24;98696.13;5031732;28;20029;-64
2022/04/09 10:09:40;;;;;;;5.43;4.70;;;;;;;13.51;42.66;98681.00;5032896;28;20025;-63
2022/04/09 10:12:14;;;;;;;5.97;4.30;;;;;;;13.65;42.60;98687.53;5031426;28;20033;-62
2022/04/09 10:14:41;;;;;;;6.13;3.92;;;;;;;13.52;42.34;98645.03;5032301;28;20163;-64
2022/04/09 10:17:07;;;;;;;4.15;3.78;;;;;;;13.78;41.58;98684.28;5032127;28;20029;-63
2022/04/09 10:19:39;;;;;;;6.47;4.07;;;;;;;13.86;41.22;98684.25;5032023;28;20057;-62
2022/04/09 10:22:05;;;;;;;5.50;3.33;;;;;;;13.76;40.72;98689.81;5032554;28;20029;-63
2022/04/09 10:24:31;;;;;;;3.80;3.38;;;;;;;13.68;41.09;98691.69;5032200;28;20148;-64
2022/04/09 10:26:58;;;;;;;6.95;3.55;;;;;;;13.70;40.21;98679.75;5030674;28;20041;-65
2022/04/09 10:29:24;;;;;;;5.00;4.15;;;;;;;13.70;40.82;98681.59;5032076;28;20048;-62
2022/04/09 10:31:53;;;;;;;5.38;4.40;;;;;;;13.53;41.08;98686.19;5032223;28;20049;-61
2022/04/09 10:34:20;;;;;;;6.65;4.35;;;;;;;13.25;41.48;98681.16;5046703;28;20045;-63
2022/04/09 10:36:45;;;;;;;6.45;4.35;;;;;;;12.99;42.58;98672.25;5050875;28;20036;-63
2022/04/09 10:39:40;;;;;;;4.70;4.18;;;;;;;12.89;42.79;98688.53;5052261;28;20040;-63
2022/04/09 10:42:10;;;;;;;4.80;4.15;;;;;;;12.53;43.05;98670.03;5050241;28;20476;-63
2022/04/09 10:44:45;;;;;;;7.57;4.32;;;;;;;12.12;43.58;98669.94;5052084;28;20025;-64
2022/04/09 10:47:15;;;;;;;5.00;3.58;;;;;;;11.90;44.10;98678.38;5034426;28;20044;-64
2022/04/09 10:49:42;;;;;;;5.57;4.40;;;;;;;11.76;44.09;98678.97;5050831;28;20419;-63
2022/04/09 10:52:16;;;;;;;5.90;4.40;;;;;;;11.77;44.66;98677.97;5050444;28;20131;-64
2022/04/09 10:55:05;;;;;;;6.32;3.92;;;;;;;11.89;44.62;98683.88;5052178;28;20029;-64
2022/04/09 10:57:44;;;;;;;8.93;4.68;;;;;;;12.02;43.97;98678.09;5050458;28;20031;-65
2022/04/09 11:00:37;;;;;;;7.50;4.47;;;;;;;12.20;43.92;98678.03;5042979;28;20024;-65
2022/04/09 11:03:29;;;;;;;7.30;4.75;;;;;;;12.32;43.83;98686.63;5043550;28;20044;-67
2022/04/09 11:06:31;;;;;;;7.38;5.45;;;;;;;12.31;43.90;98687.63;5043758;28;20083;-62
2022/04/09 11:08:57;;;;;;;7.68;4.93;;;;;;;12.18;43.61;98696.97;5038481;28;20041;-63
2022/04/09 11:11:26;;;;;;;7.95;4.72;;;;;;;12.11;43.83;98693.25;5045657;28;20491;-62
2022/04/09 11:13:53;;;;;;;7.85;5.05;;;;;;;11.94;43.91;98659.28;5048864;28;20401;-64
2022/04/09 11:16:18;;;;;;;7.10;4.70;;;;;;;12.14;43.74;98682.19;5038371;28;20660;-64
2022/04/09 11:18:46;;;;;;;7.70;4.63;;;;;;;12.10;43.36;98688.88;5044191;28;20040;-63
2022/04/09 11:21:12;;;;;;;6.40;5.25;;;;;;;11.91;43.99;98684.56;5038815;28;20033;-64
2022/04/09 11:23:38;;;;;;;7.78;5.90;;;;;;;11.82;44.47;98694.44;5051379;28;20033;-67
2022/04/09 11:26:03;;;;;;;7.60;5.65;;;;;;;11.88;44.99;98691.09;5048850;28;20040;-68
2022/04/09 11:28:38;;;;;;;8.38;5.72;;;;;;;12.31;44.66;98695.66;5050940;28;20033;-63
2022/04/09 11:31:06;;;;;;;10.20;7.60;;;;;;;12.42;43.65;98687.31;5042012;28;20045;-65
2022/04/09 11:33:32;;;;;;;14.95;6.30;;;;;;;12.46;43.40;98688.66;5049553;28;20029;-67
2022/04/09 11:36:02;;;;;;;11.02;6.30;;;;;;;12.39;43.67;98684.94;5050413;28;20373;-67
2022/04/09 11:38:28;;;;;;;8.70;5.63;;;;;;;12.27;43.76;98689.78;5051379;28;20033;-66
2022/04/09 11:40:55;;;;;;;7.97;5.68;;;;;;;11.90;43.33;98659.59;5051292;28;20086;-68
2022/04/09 11:43:21;;;;;;;6.13;5.15;;;;;;;11.94;44.20;98689.63;5051063;28;20033;-67